createdAt,value
2023-05-19T00:02:23.367Z,11.60
2023-05-19T00:04:51.673Z,11.70
2023-05-19T00:07:20.889Z,11.70
2023-05-19T00:09:49.233Z,11.70
2023-05-19T00:12:17.815Z,11.80
2023-05-19T00:14:46.385Z,11.80
2023-05-19T00:17:16.884Z,11.80
2023-05-19T00:19:46.647Z,11.80
2023-05-19T00:22:15.127Z,11.70
2023-05-19T00:24:43.145Z,11.80
2023-05-19T00:27:11.232Z,11.80
2023-05-19T00:29:39.114Z,11.80
2023-05-19T00:32:07.239Z,11.70
2023-05-19T00:34:35.203Z,11.60
2023-05-19T00:37:04.609Z,11.50
2023-05-19T00:39:32.448Z,11.50
2023-05-19T00:42:00.600Z,11.50
2023-05-19T00:44:28.452Z,11.50
2023-05-19T00:46:56.559Z,11.50
2023-05-19T00:49:24.530Z,11.30
2023-05-19T00:51:52.636Z,11.30
2023-05-19T00:54:22.150Z,11.30
2023-05-19T00:56:51.332Z,11.30
2023-05-19T00:59:19.237Z,11.30
2023-05-19T01:01:49.110Z,11.30
2023-05-19T01:04:17.631Z,11.40
2023-05-19T01:06:45.588Z,11.40
2023-05-19T01:09:13.651Z,11.30
2023-05-19T01:11:42.906Z,11.20
2023-05-19T01:14:10.840Z,11.20
2023-05-19T01:16:43.650Z,11.10
2023-05-19T01:19:25.432Z,11.00
2023-05-19T01:22:33.249Z,11.10
2023-05-19T01:25:38.482Z,11.10
2023-05-19T01:28:33.171Z,11.10
2023-05-19T01:31:04.616Z,11.00
2023-05-19T01:33:34.573Z,11.00
2023-05-19T01:36:04.976Z,11.00
2023-05-19T01:38:35.647Z,11.00
2023-05-19T01:41:05.077Z,11.00
2023-05-19T01:43:34.177Z,10.90
2023-05-19T01:46:04.240Z,10.90
2023-05-19T01:48:32.953Z,10.90
2023-05-19T01:51:00.965Z,10.90
2023-05-19T01:53:28.910Z,10.90
2023-05-19T01:55:57.867Z,10.90
2023-05-19T01:58:35.127Z,10.90
2023-05-19T02:01:12.258Z,10.90
2023-05-19T02:04:09.778Z,10.80
2023-05-19T02:06:46.309Z,10.80
2023-05-19T02:09:19.566Z,10.80
2023-05-19T02:11:56.799Z,10.90
2023-05-19T02:14:31.035Z,10.90
2023-05-19T02:17:01.790Z,10.80
2023-05-19T02:19:32.083Z,10.80
2023-05-19T02:21:59.988Z,10.80
2023-05-19T02:24:28.041Z,10.90
2023-05-19T02:26:55.987Z,10.90
2023-05-19T02:29:23.868Z,10.80
2023-05-19T02:31:51.803Z,10.70
2023-05-19T02:34:21.155Z,10.70
2023-05-19T02:36:49.790Z,10.80
2023-05-19T02:39:17.758Z,10.80
2023-05-19T02:41:45.678Z,10.90
2023-05-19T02:44:13.549Z,10.90
2023-05-19T02:46:41.439Z,10.80
2023-05-19T02:49:09.488Z,10.80
2023-05-19T02:51:38.709Z,10.70
2023-05-19T02:54:06.821Z,10.70
2023-05-19T02:56:34.737Z,10.80
2023-05-19T02:59:02.617Z,10.70
2023-05-19T03:01:32.618Z,10.80
2023-05-19T03:04:00.699Z,10.80
2023-05-19T03:06:29.380Z,10.70
2023-05-19T03:08:58.594Z,10.80
2023-05-19T03:11:26.495Z,10.90
2023-05-19T03:13:54.362Z,10.90
2023-05-19T03:16:22.329Z,10.90
2023-05-19T03:18:50.945Z,11.00
2023-05-19T03:21:18.838Z,10.90
2023-05-19T03:23:47.071Z,10.70
2023-05-19T03:26:16.457Z,10.70
2023-05-19T03:28:44.329Z,10.60
2023-05-19T03:31:12.247Z,10.70
2023-05-19T03:33:40.282Z,10.70
2023-05-19T03:36:08.952Z,10.60
2023-05-19T03:38:36.858Z,10.50
2023-05-19T03:41:05.279Z,10.60
2023-05-19T03:43:34.499Z,10.50
2023-05-19T03:46:02.583Z,10.60
2023-05-19T03:48:30.554Z,10.50
2023-05-19T03:50:58.875Z,10.60
2023-05-19T03:53:27.227Z,10.50
2023-05-19T03:55:56.730Z,10.50
2023-05-19T03:58:24.604Z,10.60
2023-05-19T04:00:53.943Z,10.70
2023-05-19T04:03:21.969Z,10.70
2023-05-19T04:05:49.987Z,10.80
2023-05-19T04:08:17.868Z,10.80
2023-05-19T04:10:45.849Z,10.80
2023-05-19T04:13:13.722Z,10.80
2023-05-19T04:15:41.926Z,10.80
2023-05-19T04:18:11.392Z,10.80
2023-05-19T04:20:39.357Z,10.80
2023-05-19T04:23:07.241Z,10.80
2023-05-19T04:25:36.107Z,10.80
2023-05-19T04:28:04.157Z,10.80
2023-05-19T04:30:32.302Z,10.80
2023-05-19T04:33:01.268Z,10.80
2023-05-19T04:35:30.679Z,10.80
2023-05-19T04:37:58.545Z,10.80
2023-05-19T04:40:26.461Z,10.80
2023-05-19T04:42:54.421Z,10.80
2023-05-19T04:45:23.246Z,10.90
2023-05-19T04:47:52.594Z,11.00
2023-05-19T04:50:20.594Z,11.00
2023-05-19T04:52:49.855Z,11.00
2023-05-19T04:55:18.065Z,11.20
2023-05-19T04:57:45.976Z,11.20
2023-05-19T05:00:15.430Z,11.30
2023-05-19T05:02:43.539Z,11.50
2023-05-19T05:05:11.539Z,11.70
2023-05-19T05:07:39.483Z,11.70
2023-05-19T05:10:10.599Z,11.60
2023-05-19T05:12:39.029Z,11.60
2023-05-19T05:15:08.527Z,11.50
2023-05-19T05:17:37.788Z,11.50
2023-05-19T05:20:07.062Z,11.60
2023-05-19T05:22:35.900Z,11.70
2023-05-19T05:25:04.502Z,11.80
2023-05-19T05:27:34.597Z,12.10
2023-05-19T05:30:02.628Z,12.20
2023-05-19T05:32:30.805Z,12.30
2023-05-19T05:34:58.869Z,12.30
2023-05-19T05:37:26.937Z,12.30
2023-05-19T05:39:54.920Z,12.30
2023-05-19T05:42:22.793Z,12.30
2023-05-19T05:44:52.349Z,12.40
2023-05-19T05:47:20.909Z,12.50
2023-05-19T05:49:50.583Z,12.60
2023-05-19T05:52:22.194Z,12.70
2023-05-19T05:54:50.749Z,12.90
2023-05-19T05:57:19.108Z,13.10
2023-05-19T05:59:47.200Z,13.10
2023-05-19T06:02:16.678Z,13.20
2023-05-19T06:04:45.076Z,13.20
2023-05-19T06:07:12.982Z,13.30
2023-05-19T06:09:40.854Z,13.40
2023-05-19T06:12:09.295Z,13.40
2023-05-19T06:14:37.229Z,13.50
2023-05-19T06:17:05.542Z,13.50
2023-05-19T06:19:34.793Z,13.50
2023-05-19T06:22:02.810Z,13.60
2023-05-19T06:24:30.938Z,13.70
2023-05-19T06:26:58.868Z,13.80
2023-05-19T06:29:26.763Z,13.90
2023-05-19T06:31:54.773Z,13.90
2023-05-19T06:34:22.852Z,13.90
2023-05-19T06:36:52.088Z,13.90
2023-05-19T06:39:19.976Z,14.10
2023-05-19T06:41:47.855Z,14.10
2023-05-19T06:44:15.860Z,14.30
2023-05-19T06:46:44.328Z,14.20
2023-05-19T06:49:12.568Z,14.20
2023-05-19T06:51:40.568Z,14.10
2023-05-19T06:54:11.051Z,14.10
2023-05-19T06:56:38.995Z,14.10
2023-05-19T06:59:06.950Z,14.00
2023-05-19T07:01:34.943Z,14.00
2023-05-19T07:04:03.026Z,14.00
2023-05-19T07:06:31.341Z,14.10
2023-05-19T07:08:59.451Z,14.10
2023-05-19T07:11:29.280Z,14.00
2023-05-19T07:13:57.194Z,14.10
2023-05-19T07:16:25.197Z,14.20
2023-05-19T07:18:53.090Z,14.20
2023-05-19T07:21:20.969Z,14.40
2023-05-19T07:23:48.858Z,14.40
2023-05-19T07:26:16.862Z,14.20
2023-05-19T07:28:46.146Z,14.10
2023-05-19T07:31:14.069Z,14.30
2023-05-19T07:33:42.259Z,14.60
2023-05-19T07:36:10.136Z,14.60
2023-05-19T07:38:38.149Z,14.60
2023-05-19T07:41:06.132Z,14.60
2023-05-19T07:43:34.220Z,14.70
2023-05-19T07:46:03.851Z,14.70
2023-05-19T07:48:31.834Z,14.70
2023-05-19T07:50:59.778Z,14.70
2023-05-19T07:53:28.021Z,14.80
2023-05-19T07:55:58.386Z,15.10
2023-05-19T07:58:26.663Z,15.50
2023-05-19T08:00:54.585Z,15.70
2023-05-19T08:03:24.129Z,15.80
2023-05-19T08:05:52.253Z,15.90
2023-05-19T08:08:20.518Z,16.00
2023-05-19T08:10:48.463Z,16.20
2023-05-19T08:13:16.448Z,16.40
2023-05-19T08:15:44.503Z,16.50
2023-05-19T08:18:12.550Z,16.40
2023-05-19T08:20:41.842Z,16.40
2023-05-19T08:23:09.746Z,16.40
2023-05-19T08:25:37.635Z,16.40
2023-05-19T08:28:05.847Z,16.50
2023-05-19T08:30:33.924Z,16.80
2023-05-19T08:33:02.322Z,16.90
2023-05-19T08:35:30.352Z,17.20
2023-05-19T08:37:59.576Z,17.30
2023-05-19T08:40:31.598Z,17.30
2023-05-19T08:42:59.747Z,17.50
2023-05-19T08:45:28.286Z,17.70
2023-05-19T08:47:57.088Z,17.90
2023-05-19T08:50:32.142Z,18.20
2023-05-19T08:53:12.756Z,18.40
2023-05-19T08:56:02.726Z,18.40
2023-05-19T08:58:31.952Z,18.60
2023-05-19T09:01:01.780Z,18.80
2023-05-19T09:03:30.373Z,18.90
2023-05-19T09:05:58.521Z,18.80
2023-05-19T09:08:28.019Z,18.50
2023-05-19T09:10:55.889Z,18.40
2023-05-19T09:13:24.536Z,18.70
2023-05-19T09:15:54.233Z,18.90
2023-05-19T09:18:22.129Z,19.20
2023-05-19T09:20:50.081Z,19.30
2023-05-19T09:23:19.222Z,19.40
2023-05-19T09:25:53.616Z,19.60
2023-05-19T09:28:25.985Z,19.80
2023-05-19T09:31:01.487Z,19.80
2023-05-19T09:33:29.628Z,19.80
2023-05-19T09:35:57.862Z,19.90
2023-05-19T09:38:26.909Z,20.00
2023-05-19T09:40:57.930Z,20.20
2023-05-19T09:43:28.078Z,20.10
2023-05-19T09:45:57.229Z,20.00
2023-05-19T09:48:27.637Z,19.70
2023-05-19T09:50:57.188Z,19.80
2023-05-19T09:53:26.153Z,20.20
2023-05-19T09:55:58.779Z,20.30
2023-05-19T09:58:27.091Z,20.30
2023-05-19T10:00:55.401Z,20.50
2023-05-19T10:03:24.287Z,20.50
2023-05-19T10:05:53.546Z,20.50
2023-05-19T10:08:21.818Z,20.50
2023-05-19T10:10:49.756Z,20.50
2023-05-19T10:13:19.271Z,20.70
2023-05-19T10:15:58.284Z,20.50
2023-05-19T10:18:29.591Z,20.80
2023-05-19T10:20:58.863Z,20.80
2023-05-19T10:23:26.969Z,20.50
2023-05-19T10:25:57.699Z,20.40
2023-05-19T10:28:35.762Z,20.40
2023-05-19T10:31:08.695Z,20.20
2023-05-19T10:33:48.175Z,20.20
2023-05-19T10:36:35.424Z,20.30
2023-05-19T10:39:08.055Z,20.30
2023-05-19T10:41:46.926Z,21.00
2023-05-19T10:44:25.825Z,21.30
2023-05-19T10:46:56.077Z,21.60
2023-05-19T10:49:25.030Z,21.70
2023-05-19T10:51:55.894Z,21.60
2023-05-19T10:54:43.210Z,21.40
2023-05-19T10:57:16.261Z,21.40
2023-05-19T10:59:45.941Z,20.80
2023-05-19T11:02:38.826Z,20.80
2023-05-19T11:05:11.121Z,20.60
2023-05-19T11:07:42.326Z,21.00
2023-05-19T11:10:10.841Z,21.30
2023-05-19T11:12:43.828Z,21.50
2023-05-19T11:15:14.667Z,21.70
2023-05-19T11:17:43.619Z,21.80
2023-05-19T11:20:23.481Z,21.90
2023-05-19T11:23:10.219Z,21.90
2023-05-19T11:25:45.622Z,22.60
2023-05-19T11:28:14.137Z,23.00
2023-05-19T11:30:45.798Z,23.20
2023-05-19T11:33:14.784Z,23.00
2023-05-19T11:35:44.534Z,22.90
2023-05-19T11:38:12.638Z,22.20
2023-05-19T11:40:41.389Z,22.00
2023-05-19T11:43:09.277Z,21.70
2023-05-19T11:45:37.478Z,21.70
2023-05-19T11:48:07.365Z,22.00
2023-05-19T11:50:36.812Z,22.00
2023-05-19T11:53:04.759Z,22.20
2023-05-19T11:55:33.397Z,22.00
2023-05-19T11:58:05.099Z,22.40
2023-05-19T12:00:38.995Z,21.90
2023-05-19T12:03:08.978Z,21.80
2023-05-19T12:05:42.813Z,21.70
2023-05-19T12:08:11.961Z,21.60
2023-05-19T12:10:40.942Z,21.80
2023-05-19T12:13:09.574Z,22.10
2023-05-19T12:15:39.245Z,21.90
2023-05-19T12:18:08.862Z,21.80
2023-05-19T12:20:37.639Z,21.50
2023-05-19T12:23:06.425Z,21.60
2023-05-19T12:25:34.832Z,21.60
2023-05-19T12:28:04.502Z,21.90
2023-05-19T12:30:33.667Z,22.40
2023-05-19T12:33:03.617Z,22.50
2023-05-19T12:35:34.295Z,22.40
2023-05-19T12:38:05.804Z,22.40
2023-05-19T12:40:34.961Z,22.50
2023-05-19T12:43:03.364Z,22.70
2023-05-19T12:45:35.666Z,23.00
2023-05-19T12:48:05.353Z,22.90
2023-05-19T12:50:35.380Z,23.10
2023-05-19T12:53:03.570Z,23.10
2023-05-19T12:55:31.466Z,23.30
2023-05-19T12:57:59.439Z,23.40
2023-05-19T13:00:30.946Z,23.40
2023-05-19T13:03:01.407Z,23.10
2023-05-19T13:05:31.451Z,23.30
2023-05-19T13:08:01.947Z,23.50
2023-05-19T13:10:31.450Z,23.50
2023-05-19T13:13:01.037Z,23.60
2023-05-19T13:15:31.719Z,23.40
2023-05-19T13:18:00.944Z,22.80
2023-05-19T13:20:29.198Z,22.50
2023-05-19T13:22:57.955Z,22.10
2023-05-19T13:25:27.479Z,21.90
2023-05-19T13:27:56.616Z,21.70
2023-05-19T13:30:24.569Z,21.40
2023-05-19T13:32:53.304Z,21.10
2023-05-19T13:35:21.614Z,21.00
2023-05-19T13:37:50.888Z,21.10
2023-05-19T13:40:19.244Z,21.10
2023-05-19T13:42:48.511Z,21.10
2023-05-19T13:45:16.471Z,21.00
2023-05-19T13:47:44.388Z,21.60
2023-05-19T13:50:12.427Z,22.50
2023-05-19T13:52:40.441Z,22.80
2023-05-19T13:55:09.184Z,23.00
2023-05-19T13:57:38.159Z,22.80
2023-05-19T14:00:10.147Z,23.00
2023-05-19T14:02:38.614Z,23.50
2023-05-19T14:05:07.791Z,24.10
2023-05-19T14:07:36.010Z,23.90
2023-05-19T14:10:05.517Z,23.50
2023-05-19T14:12:45.083Z,23.40
2023-05-19T14:15:21.507Z,23.30
2023-05-19T14:17:49.532Z,23.30
2023-05-19T14:20:17.527Z,23.50
2023-05-19T14:22:45.486Z,23.40
2023-05-19T14:25:13.359Z,23.80
2023-05-19T14:27:41.264Z,23.60
2023-05-19T14:30:10.162Z,23.80
2023-05-19T14:32:39.544Z,23.80
2023-05-19T14:35:08.180Z,23.70
2023-05-19T14:37:36.141Z,23.40
2023-05-19T14:40:04.464Z,22.90
2023-05-19T14:42:32.359Z,22.50
2023-05-19T14:45:00.287Z,22.60
2023-05-19T14:47:28.232Z,22.70
2023-05-19T14:49:57.480Z,22.90
2023-05-19T14:52:26.216Z,22.40
2023-05-19T14:54:54.285Z,22.10
2023-05-19T14:57:22.194Z,22.10
2023-05-19T14:59:50.623Z,22.40
2023-05-19T15:02:18.566Z,22.40
2023-05-19T15:04:46.568Z,22.50
2023-05-19T15:07:16.374Z,22.20
2023-05-19T15:09:44.334Z,22.00
2023-05-19T15:12:12.200Z,22.10
2023-05-19T15:14:40.246Z,22.10
2023-05-19T15:17:08.234Z,21.90
2023-05-19T15:19:36.167Z,21.70
2023-05-19T15:22:04.104Z,21.60
2023-05-19T15:24:33.331Z,21.50
2023-05-19T15:27:02.040Z,21.50
2023-05-19T15:29:29.914Z,21.40
2023-05-19T15:31:58.108Z,21.30
2023-05-19T15:34:26.058Z,21.10
2023-05-19T15:36:54.146Z,21.00
2023-05-19T15:39:22.025Z,20.80
2023-05-19T15:41:52.517Z,20.40
2023-05-19T15:44:20.417Z,20.30
2023-05-19T15:46:48.373Z,20.30
2023-05-19T15:49:17.802Z,20.20
2023-05-19T15:51:46.063Z,20.20
2023-05-19T15:54:13.954Z,20.10
2023-05-19T15:56:41.812Z,20.10
2023-05-19T15:59:11.070Z,20.00
2023-05-19T16:01:39.036Z,19.90
2023-05-19T16:04:07.133Z,19.80
2023-05-19T16:06:35.094Z,19.80
2023-05-19T16:09:03.010Z,19.90
2023-05-19T16:11:30.928Z,19.80
2023-05-19T16:13:58.844Z,19.70
2023-05-19T16:16:28.102Z,19.70
2023-05-19T16:18:56.032Z,19.60
2023-05-19T16:21:24.083Z,19.60
2023-05-19T16:23:52.142Z,19.50
2023-05-19T16:26:20.110Z,19.50
2023-05-19T16:28:48.024Z,19.40
2023-05-19T16:31:15.943Z,19.40
2023-05-19T16:33:46.133Z,19.30
2023-05-19T16:36:14.034Z,19.30
2023-05-19T16:38:41.885Z,19.30
2023-05-19T16:41:12.440Z,19.20
2023-05-19T16:43:40.419Z,19.10
2023-05-19T16:46:09.835Z,19.10
2023-05-19T16:48:37.824Z,19.20
2023-05-19T16:51:07.185Z,19.20
2023-05-19T16:53:35.060Z,19.20
2023-05-19T16:56:02.939Z,19.20
2023-05-19T16:58:31.233Z,19.20
2023-05-19T17:00:59.113Z,19.20
2023-05-19T17:03:27.150Z,19.20
2023-05-19T17:05:55.162Z,19.20
2023-05-19T17:08:24.366Z,19.20
2023-05-19T17:10:52.222Z,19.20
2023-05-19T17:13:20.139Z,19.10
2023-05-19T17:15:52.355Z,19.20
2023-05-19T17:18:20.256Z,19.10
2023-05-19T17:20:48.156Z,19.10
2023-05-19T17:23:16.139Z,19.00
2023-05-19T17:25:45.540Z,19.00
2023-05-19T17:28:13.402Z,19.00
2023-05-19T17:30:42.254Z,19.00
2023-05-19T17:33:10.181Z,18.90
2023-05-19T17:35:38.099Z,18.90
2023-05-19T17:38:05.991Z,19.00
2023-05-19T17:40:35.783Z,19.00
2023-05-19T17:43:05.923Z,18.90
2023-05-19T17:45:33.785Z,18.90
2023-05-19T17:48:01.743Z,18.80
2023-05-19T17:50:29.674Z,18.70
2023-05-19T17:52:58.010Z,18.60
2023-05-19T17:55:29.968Z,18.50
2023-05-19T17:57:58.523Z,18.50
2023-05-19T18:00:28.324Z,18.40
2023-05-19T18:02:57.823Z,18.40
2023-05-19T18:05:26.766Z,18.30
2023-05-19T18:07:56.041Z,18.30
2023-05-19T18:10:26.753Z,18.20
2023-05-19T18:12:54.619Z,18.10
2023-05-19T18:15:22.493Z,18.10
2023-05-19T18:17:51.784Z,18.10
2023-05-19T18:20:19.852Z,18.00
2023-05-19T18:22:47.935Z,18.00
2023-05-19T18:25:16.969Z,17.90
2023-05-19T18:27:45.527Z,17.90
2023-05-19T18:30:13.506Z,17.80
2023-05-19T18:32:41.604Z,17.70
2023-05-19T18:35:11.426Z,17.70
2023-05-19T18:37:39.321Z,17.60
2023-05-19T18:40:08.827Z,17.50
2023-05-19T18:42:36.686Z,17.50
2023-05-19T18:45:05.303Z,17.40
2023-05-19T18:47:33.295Z,17.30
2023-05-19T18:50:01.533Z,17.20
2023-05-19T18:52:31.316Z,17.20
2023-05-19T18:55:00.765Z,17.10
2023-05-19T18:57:28.685Z,17.10
2023-05-19T18:59:56.981Z,17.00
2023-05-19T19:02:24.963Z,17.00
2023-05-19T19:04:52.992Z,17.00
2023-05-19T19:07:20.921Z,16.90
2023-05-19T19:09:50.463Z,16.90
2023-05-19T19:12:19.612Z,16.90
2023-05-19T19:14:48.231Z,16.80
2023-05-19T19:17:16.214Z,16.90
2023-05-19T19:19:44.375Z,16.80
2023-05-19T19:22:12.373Z,16.80
2023-05-19T19:24:42.999Z,16.70
2023-05-19T19:27:12.502Z,16.70
2023-05-19T19:29:40.400Z,16.70
2023-05-19T19:32:08.629Z,16.70
2023-05-19T19:34:36.766Z,16.60
2023-05-19T19:37:04.895Z,16.60
2023-05-19T19:39:32.796Z,16.50
2023-05-19T19:42:00.672Z,16.40
2023-05-19T19:44:29.859Z,16.40
2023-05-19T19:46:57.763Z,16.40
2023-05-19T19:49:25.977Z,16.30
2023-05-19T19:51:53.890Z,16.30
2023-05-19T19:54:21.784Z,16.30
2023-05-19T19:56:49.692Z,16.20
2023-05-19T19:59:17.586Z,16.30
2023-05-19T20:01:46.848Z,16.20
2023-05-19T20:04:15.378Z,16.20
2023-05-19T20:06:43.442Z,16.10
2023-05-19T20:09:11.374Z,16.20
2023-05-19T20:11:39.294Z,16.10
2023-05-19T20:14:07.139Z,16.10
2023-05-19T20:16:35.068Z,16.10
2023-05-19T20:19:05.408Z,16.10
2023-05-19T20:21:34.621Z,16.00
2023-05-19T20:24:03.225Z,16.00
2023-05-19T20:26:31.381Z,16.00
2023-05-19T20:28:59.270Z,16.00
2023-05-19T20:31:27.184Z,16.00
2023-05-19T20:33:55.071Z,16.00
2023-05-19T20:36:24.281Z,16.00
2023-05-19T20:38:52.970Z,16.00
2023-05-19T20:41:20.871Z,16.00
2023-05-19T20:43:48.782Z,16.00
2023-05-19T20:46:16.789Z,16.00
2023-05-19T20:48:44.978Z,16.00
2023-05-19T20:51:12.872Z,16.00
2023-05-19T20:53:42.219Z,16.00
2023-05-19T20:56:10.525Z,15.90
2023-05-19T20:58:38.710Z,15.90
2023-05-19T21:01:06.815Z,15.90
2023-05-19T21:03:34.890Z,15.90
2023-05-19T21:06:03.169Z,15.90
2023-05-19T21:08:31.132Z,15.90
2023-05-19T21:11:00.422Z,15.80
2023-05-19T21:13:28.318Z,15.90
2023-05-19T21:15:57.518Z,15.90
2023-05-19T21:18:25.518Z,15.90
2023-05-19T21:20:53.381Z,15.90
2023-05-19T21:23:21.275Z,15.80
2023-05-19T21:25:50.830Z,15.80
2023-05-19T21:28:20.069Z,15.70
2023-05-19T21:30:49.142Z,15.70
2023-05-19T21:33:17.191Z,15.70
2023-05-19T21:35:45.818Z,15.70
2023-05-19T21:38:23.257Z,15.70
2023-05-19T21:40:52.191Z,15.70
2023-05-19T21:43:21.759Z,15.60
2023-05-19T21:45:49.640Z,15.60
2023-05-19T21:48:17.714Z,15.60
2023-05-19T21:50:45.761Z,15.50
2023-05-19T21:53:13.641Z,15.50
2023-05-19T21:55:41.520Z,15.50
2023-05-19T21:58:09.496Z,15.40
2023-05-19T22:00:38.771Z,15.40
2023-05-19T22:03:06.835Z,15.30
2023-05-19T22:05:35.257Z,15.30
2023-05-19T22:08:03.598Z,15.30
2023-05-19T22:10:31.770Z,15.20
2023-05-19T22:12:59.958Z,15.20
2023-05-19T22:15:27.855Z,15.20
2023-05-19T22:17:57.333Z,15.20
2023-05-19T22:20:25.310Z,15.10
2023-05-19T22:22:53.228Z,15.10
2023-05-19T22:25:21.352Z,15.10
2023-05-19T22:27:49.230Z,15.10
2023-05-19T22:30:17.324Z,15.00
2023-05-19T22:32:45.321Z,15.00
2023-05-19T22:35:14.666Z,15.10
2023-05-19T22:37:42.593Z,15.00
2023-05-19T22:40:11.094Z,15.00
2023-05-19T22:42:39.249Z,15.00
2023-05-19T22:45:08.230Z,15.00
2023-05-19T22:47:36.250Z,15.00
2023-05-19T22:50:04.291Z,15.10
2023-05-19T22:52:33.596Z,15.10
2023-05-19T22:55:01.486Z,15.10
2023-05-19T22:57:29.396Z,15.10
2023-05-19T22:59:57.246Z,15.10
2023-05-19T23:02:25.229Z,15.10
2023-05-19T23:04:53.216Z,15.10
2023-05-19T23:07:21.059Z,15.10
2023-05-19T23:09:50.501Z,15.10
2023-05-19T23:12:18.417Z,15.20
2023-05-19T23:14:46.294Z,15.20
2023-05-19T23:17:14.232Z,15.20
2023-05-19T23:19:42.109Z,15.20
2023-05-19T23:22:11.100Z,15.20
2023-05-19T23:24:39.160Z,15.20
2023-05-19T23:27:08.587Z,15.20
2023-05-19T23:29:36.474Z,15.20
2023-05-19T23:32:04.589Z,15.20
2023-05-19T23:34:32.493Z,15.20
2023-05-19T23:37:00.333Z,15.20
2023-05-19T23:39:28.229Z,15.20
2023-05-19T23:41:56.287Z,15.20
2023-05-19T23:44:26.921Z,15.20
2023-05-19T23:46:54.853Z,15.10
2023-05-19T23:49:22.753Z,15.10
2023-05-19T23:51:50.641Z,15.10
2023-05-19T23:54:18.537Z,15.10
2023-05-19T23:56:46.463Z,15.00
2023-05-19T23:59:14.340Z,15.00
